Time;durP1;ratioP1;P1;durP2;ratioP2;P2;SDS_P1;SDS_P2;PMS_P1;PMS_P2;Temp;Humidity;BMP_temperature;BMP_pressure;BME280_temperature;BME280_humidity;BME280_pressure;Samples;Min_cycle;Max_cycle;Signal;HPM_P1;HPM_P2
2022/10/26 00:01:38;;;;;;;7.07;5.28;;;;;;;5.08;100.00;98733.66;4158648;28;20040;-72
2022/10/26 00:03:40;;;;;;;8.95;5.35;;;;;;;5.13;100.00;98726.34;4156882;28;20127;-72
2022/10/26 00:05:41;;;;;;;6.53;4.53;;;;;;;5.06;100.00;98715.94;4156941;28;20071;-72
2022/10/26 00:07:41;;;;;;;7.53;4.85;;;;;;;5.13;100.00;98721.69;4157752;28;20120;-72
2022/10/26 00:09:41;;;;;;;9.43;4.70;;;;;;;5.08;100.00;98717.19;4156401;28;20034;-72
2022/10/26 00:11:42;;;;;;;8.60;4.57;;;;;;;5.11;100.00;98723.13;4155318;28;20098;-72
2022/10/26 00:13:43;;;;;;;7.93;4.15;;;;;;;5.11;100.00;98720.38;4161035;28;20041;-72
2022/10/26 00:15:44;;;;;;;6.82;4.55;;;;;;;5.17;100.00;98728.09;4160227;28;20045;-72
2022/10/26 00:17:45;;;;;;;8.73;4.65;;;;;;;5.17;100.00;98724.53;4160118;28;20107;-72
2022/10/26 00:19:45;;;;;;;10.50;4.78;;;;;;;5.16;100.00;98721.00;4161410;28;20428;-72
2022/10/26 00:21:46;;;;;;;10.07;4.75;;;;;;;5.07;100.00;98723.00;4157944;28;20049;-72
2022/10/26 00:23:46;;;;;;;6.78;4.38;;;;;;;5.12;100.00;98739.25;4160177;28;20041;-72
2022/10/26 00:25:53;;;;;;;6.60;4.65;;;;;;;5.03;100.00;98728.34;4159224;28;20400;-72
2022/10/26 00:27:54;;;;;;;6.85;4.72;;;;;;;5.05;100.00;98726.09;4158866;28;20423;-72
2022/10/26 00:29:54;;;;;;;5.28;4.13;;;;;;;5.01;100.00;98719.66;4160360;28;20071;-72
2022/10/26 00:31:54;;;;;;;5.80;4.13;;;;;;;5.02;100.00;98724.00;4159001;28;20080;-72
2022/10/26 00:33:56;;;;;;;6.40;4.32;;;;;;;5.03;100.00;98727.56;4160474;28;20143;-72
2022/10/26 00:35:56;;;;;;;7.95;4.40;;;;;;;5.00;100.00;98726.28;4160290;28;20112;-72
2022/10/26 00:37:56;;;;;;;7.88;4.25;;;;;;;5.04;100.00;98732.69;4162543;28;20073;-72
2022/10/26 00:39:57;;;;;;;5.00;3.88;;;;;;;5.09;100.00;98734.44;4158603;28;20038;-72
2022/10/26 00:41:57;;;;;;;7.25;4.35;;;;;;;5.09;100.00;98742.66;4160588;28;20069;-72
2022/10/26 00:43:58;;;;;;;7.75;4.38;;;;;;;5.00;100.00;98730.97;4158861;28;20041;-72
2022/10/26 00:46:00;;;;;;;9.65;4.88;;;;;;;4.94;100.00;98735.06;4158897;28;20037;-72
2022/10/26 00:48:04;;;;;;;;;;;;;;;4.90;100.00;98743.16;4160858;28;20052;-72
2022/10/26 00:50:14;;;;;;;4.20;3.53;;;;;;;4.89;100.00;98740.75;4159961;28;20369;-72
2022/10/26 00:52:17;;;;;;;5.15;3.70;;;;;;;4.89;100.00;98735.25;4158391;28;21233;-72
2022/10/26 00:54:19;;;;;;;5.72;3.65;;;;;;;4.90;100.00;98734.94;4159289;28;20048;-72
2022/10/26 00:56:20;;;;;;;8.57;5.40;;;;;;;4.94;100.00;98740.53;4158398;28;20276;-72
2022/10/26 00:58:22;;;;;;;9.82;3.85;;;;;;;4.91;100.00;98735.72;4160776;28;25048;-72
2022/10/26 01:00:22;;;;;;;7.38;4.13;;;;;;;5.03;100.00;98727.56;4160785;28;20073;-72
2022/10/26 01:02:22;;;;;;;6.97;4.43;;;;;;;5.10;100.00;98732.50;4157779;28;20123;-72
2022/10/26 01:04:23;;;;;;;8.23;4.18;;;;;;;5.04;100.00;98729.16;4158955;28;20045;-72
2022/10/26 01:06:23;;;;;;;8.52;4.50;;;;;;;5.03;100.00;98717.38;4162970;28;20063;-72
2022/10/26 01:08:27;;;;;;;6.32;4.22;;;;;;;5.15;100.00;98721.34;4158769;28;20043;-72
2022/10/26 01:10:27;;;;;;;5.75;4.00;;;;;;;5.15;100.00;98713.13;4158320;28;20069;-72
2022/10/26 01:12:28;;;;;;;5.72;4.45;;;;;;;5.10;100.00;98716.03;4160989;28;20042;-72
2022/10/26 01:14:28;;;;;;;12.85;4.72;;;;;;;5.06;100.00;98714.00;4156927;28;20086;-72
2022/10/26 01:16:46;;;;;;;6.68;4.25;;;;;;;5.04;100.00;98707.22;4156159;28;20033;-71
2022/10/26 01:19:05;;;;;;;9.15;4.00;;;;;;;5.03;100.00;98711.91;4160812;28;20033;-72
2022/10/26 01:21:26;;;;;;;6.95;4.28;;;;;;;5.00;100.00;98709.03;4156971;28;20038;-72
2022/10/26 01:23:50;;;;;;;7.78;4.28;;;;;;;4.99;100.00;98707.44;4159698;28;20100;-72
2022/10/26 01:26:03;;;;;;;;;;;;;;;5.01;100.00;98708.69;4159020;28;20049;-72
2022/10/26 01:28:18;;;;;;;7.15;4.40;;;;;;;4.98;100.00;98698.41;4156109;28;19920;-72
2022/10/26 01:30:40;;;;;;;6.80;4.30;;;;;;;5.04;100.00;98712.69;4160617;28;20044;-72
2022/10/26 01:32:46;;;;;;;6.65;3.88;;;;;;;5.05;100.00;98709.66;4160707;28;20105;-72
2022/10/26 01:34:57;;;;;;;8.40;4.07;;;;;;;5.03;100.00;98705.63;4160186;28;20509;-72
2022/10/26 01:37:07;;;;;;;6.47;3.80;;;;;;;5.11;100.00;98701.19;4160437;28;20072;-72
2022/10/26 01:39:21;;;;;;;5.75;3.85;;;;;;;5.11;100.00;98703.94;4159664;28;20440;-72
2022/10/26 01:41:28;;;;;;;5.82;3.83;;;;;;;5.10;100.00;98696.84;4157094;28;20184;-72
2022/10/26 01:43:34;;;;;;;7.53;3.65;;;;;;;5.01;100.00;98692.25;4159965;28;20441;-72
2022/10/26 01:45:38;;;;;;;5.65;3.75;;;;;;;4.99;100.00;98699.22;4160074;28;20041;-72
2022/10/26 01:47:40;;;;;;;6.43;4.35;;;;;;;5.03;100.00;98692.69;4156755;28;20456;-72
2022/10/26 01:49:50;;;;;;;9.35;4.13;;;;;;;5.01;100.00;98689.50;4157157;28;20038;-72
2022/10/26 01:51:50;;;;;;;6.88;3.55;;;;;;;4.96;100.00;98689.69;4163145;28;20056;-72
2022/10/26 01:53:50;;;;;;;10.13;4.15;;;;;;;5.00;100.00;98682.41;4155248;28;20441;-72
2022/10/26 01:55:52;;;;;;;7.65;4.40;;;;;;;4.99;100.00;98680.00;4156812;28;20559;-72
2022/10/26 01:58:04;;;;;;;6.60;3.65;;;;;;;5.03;100.00;98678.19;4159353;28;20046;-72
2022/10/26 02:00:08;;;;;;;6.30;3.58;;;;;;;5.00;100.00;98682.41;4157230;28;20434;-71
2022/10/26 02:02:25;;;;;;;6.88;3.85;;;;;;;5.01;100.00;98686.75;4159973;28;20439;-72
2022/10/26 02:04:50;;;;;;;6.78;4.22;;;;;;;5.03;100.00;98680.94;4154949;28;20069;-72
2022/10/26 02:07:07;;;;;;;9.68;4.25;;;;;;;5.03;100.00;98673.50;4161992;28;20052;-72
2022/10/26 02:09:27;;;;;;;8.57;4.32;;;;;;;5.03;100.00;98672.69;4157502;28;20061;-72
2022/10/26 02:11:40;;;;;;;9.73;4.35;;;;;;;5.05;100.00;98673.19;4158133;28;20041;-72
2022/10/26 02:14:03;;;;;;;4.82;3.97;;;;;;;5.04;100.00;98669.63;4155033;28;20044;-72
2022/10/26 02:16:22;;;;;;;11.52;5.22;;;;;;;5.07;100.00;98668.16;4154789;28;20045;-72
2022/10/26 02:18:29;;;;;;;7.18;4.60;;;;;;;5.01;100.00;98673.03;4162274;28;20049;-72
2022/10/26 02:20:34;;;;;;;5.97;4.20;;;;;;;4.94;100.00;98666.50;4158971;28;20346;-72
2022/10/26 02:22:38;;;;;;;9.98;4.72;;;;;;;4.91;100.00;98669.94;4161130;28;20029;-72
2022/10/26 02:24:40;;;;;;;7.30;4.22;;;;;;;4.86;100.00;98670.13;4157612;28;20049;-72
2022/10/26 02:26:44;;;;;;;6.88;4.50;;;;;;;4.77;100.00;98671.00;4157019;28;20520;-72
2022/10/26 02:28:49;;;;;;;6.80;3.80;;;;;;;4.71;100.00;98668.78;4158683;28;20444;-72
2022/10/26 02:30:53;;;;;;;7.65;4.57;;;;;;;4.64;100.00;98669.34;4161529;28;20139;-72
2022/10/26 02:32:56;;;;;;;8.20;4.68;;;;;;;4.65;100.00;98659.97;4154913;28;20041;-72
2022/10/26 02:35:00;;;;;;;9.10;4.28;;;;;;;4.69;100.00;98658.16;4155193;28;20087;-72
2022/10/26 02:37:02;;;;;;;7.25;3.88;;;;;;;4.74;100.00;98659.91;4158195;28;20183;-72
2022/10/26 02:39:05;;;;;;;5.65;3.67;;;;;;;4.67;100.00;98656.91;4156284;28;20041;-72
2022/10/26 02:41:07;;;;;;;10.07;4.00;;;;;;;4.68;100.00;98662.03;4155485;28;20410;-72
2022/10/26 02:43:12;;;;;;;7.60;4.18;;;;;;;4.65;100.00;98659.97;4155810;28;20045;-72
2022/10/26 02:45:17;;;;;;;5.60;3.67;;;;;;;4.68;100.00;98653.81;4155725;28;20492;-72
2022/10/26 02:47:19;;;;;;;6.90;3.97;;;;;;;4.65;100.00;98659.97;4155841;28;20488;-72
2022/10/26 02:49:20;;;;;;;4.80;3.43;;;;;;;4.61;100.00;98667.25;4158823;28;20359;-72
2022/10/26 02:51:26;;;;;;;6.93;4.78;;;;;;;4.58;100.00;98656.97;4157017;28;20053;-72
2022/10/26 02:53:32;;;;;;;6.03;4.13;;;;;;;4.61;100.00;98655.47;4158630;28;20099;-72
2022/10/26 02:55:39;;;;;;;5.43;3.90;;;;;;;4.60;100.00;98651.94;4156501;28;20045;-72
2022/10/26 02:57:43;;;;;;;6.65;4.30;;;;;;;4.59;100.00;98657.75;4159706;28;20077;-72
2022/10/26 02:59:46;;;;;;;5.72;3.63;;;;;;;4.58;100.00;98659.72;4156076;28;20045;-72
2022/10/26 03:01:48;;;;;;;5.25;3.95;;;;;;;4.54;100.00;98652.47;4154657;28;20056;-72
2022/10/26 03:03:49;;;;;;;5.78;3.92;;;;;;;4.56;100.00;98655.69;4156171;28;20124;-72
2022/10/26 03:05:49;;;;;;;8.73;4.28;;;;;;;4.54;100.00;98653.28;4155601;28;20486;-71
2022/10/26 03:07:50;;;;;;;8.50;4.30;;;;;;;4.48;100.00;98652.69;4155301;28;20045;-72
2022/10/26 03:09:51;;;;;;;7.60;4.30;;;;;;;4.45;100.00;98655.28;4155003;28;20052;-72
2022/10/26 03:11:52;;;;;;;5.72;4.15;;;;;;;4.56;100.00;98655.69;4156197;28;20037;-72
2022/10/26 03:13:52;;;;;;;8.30;4.60;;;;;;;4.55;100.00;98648.59;4158692;28;20381;-72
2022/10/26 03:15:56;;;;;;;8.38;4.22;;;;;;;4.50;100.00;98652.34;4154711;28;20037;-72
2022/10/26 03:17:56;;;;;;;9.80;4.47;;;;;;;4.58;100.00;98653.44;4154926;28;20076;-72
2022/10/26 03:19:57;;;;;;;6.32;3.83;;;;;;;4.67;100.00;98645.94;4156070;28;20065;-72
2022/10/26 03:21:57;;;;;;;7.35;4.05;;;;;;;4.68;100.00;98636.56;4155517;28;20033;-72
2022/10/26 03:23:57;;;;;;;5.72;3.72;;;;;;;4.70;100.00;98645.25;4153735;28;20489;-72
2022/10/26 03:25:58;;;;;;;8.32;3.78;;;;;;;4.72;100.00;98646.53;4155692;28;20604;-72
2022/10/26 03:28:03;;;;;;;5.18;3.45;;;;;;;4.71;100.00;98644.13;4155722;28;20073;-72
2022/10/26 03:30:04;;;;;;;7.47;4.10;;;;;;;4.71;100.00;98646.84;4156492;28;20056;-72
2022/10/26 03:32:04;;;;;;;5.63;3.30;;;;;;;4.71;100.00;98639.44;4161208;28;20036;-72
2022/10/26 03:34:05;;;;;;;6.63;4.22;;;;;;;4.69;100.00;98635.44;4155428;28;20453;-71
2022/10/26 03:36:06;;;;;;;6.20;4.28;;;;;;;4.73;100.00;98630.91;4160913;28;20040;-72
2022/10/26 03:38:06;;;;;;;7.38;4.28;;;;;;;4.73;100.00;98631.69;4153833;28;20156;-72
2022/10/26 03:40:07;;;;;;;5.70;3.60;;;;;;;4.71;100.00;98633.16;4155516;28;20312;-71
2022/10/26 03:42:08;;;;;;;7.18;3.70;;;;;;;4.71;100.00;98636.69;4155142;28;20060;-72
2022/10/26 03:44:08;;;;;;;6.63;3.70;;;;;;;4.71;100.00;98624.94;4153233;28;20445;-72
2022/10/26 03:46:08;;;;;;;4.90;3.33;;;;;;;4.73;100.00;98623.47;4155437;28;20033;-72
2022/10/26 03:48:08;;;;;;;7.22;3.65;;;;;;;4.73;100.00;98620.72;4158395;28;20029;-71
2022/10/26 03:50:10;;;;;;;7.55;3.78;;;;;;;4.77;100.00;98629.06;4154902;28;20033;-72
2022/10/26 03:52:10;;;;;;;6.55;4.00;;;;;;;4.81;100.00;98623.75;4154770;28;20034;-72
2022/10/26 03:54:10;;;;;;;5.75;3.55;;;;;;;4.83;100.00;98627.72;4154811;28;20644;-72
2022/10/26 03:56:10;;;;;;;4.25;3.50;;;;;;;4.90;100.00;98635.44;4154902;28;20040;-72
2022/10/26 03:58:11;;;;;;;7.20;3.70;;;;;;;4.92;100.00;98631.19;4153703;28;20037;-72
2022/10/26 04:00:16;;;;;;;6.95;3.72;;;;;;;4.95;100.00;98640.69;4155227;28;20029;-72
2022/10/26 04:02:16;;;;;;;6.93;3.33;;;;;;;5.00;100.00;98645.97;4159016;28;20030;-72
2022/10/26 04:04:17;;;;;;;5.13;3.55;;;;;;;5.04;100.00;98631.22;4155847;28;20025;-72
2022/10/26 04:06:17;;;;;;;5.97;3.70;;;;;;;5.02;100.00;98630.78;4155237;28;20030;-72
2022/10/26 04:08:17;;;;;;;7.18;3.67;;;;;;;5.02;100.00;98632.72;4158296;28;20466;-72
2022/10/26 04:10:18;;;;;;;6.15;3.70;;;;;;;5.04;100.00;98633.97;4154617;28;20040;-72
2022/10/26 04:12:18;;;;;;;7.05;4.22;;;;;;;5.02;100.00;98639.00;4153508;28;20041;-72
2022/10/26 04:14:18;;;;;;;6.50;3.72;;;;;;;4.97;100.00;98628.25;4155008;28;20491;-72
2022/10/26 04:16:18;;;;;;;6.28;3.75;;;;;;;4.95;100.00;98622.28;4154898;28;20037;-72
2022/10/26 04:18:19;;;;;;;7.75;4.10;;;;;;;4.96;100.00;98623.88;4153811;28;20034;-72
2022/10/26 04:20:19;;;;;;;4.93;3.70;;;;;;;4.97;100.00;98625.50;4156462;28;20128;-72
2022/10/26 04:22:19;;;;;;;6.35;3.97;;;;;;;4.98;100.00;98627.13;4157843;28;20025;-72
2022/10/26 04:24:20;;;;;;;6.90;3.47;;;;;;;5.01;100.00;98617.41;4155346;28;20495;-72
2022/10/26 04:26:20;;;;;;;7.22;3.78;;;;;;;5.01;100.00;98620.94;4154367;28;20157;-72
2022/10/26 04:28:20;;;;;;;7.63;4.38;;;;;;;5.04;100.00;98616.72;4155344;28;20543;-72
2022/10/26 04:30:21;;;;;;;5.82;4.03;;;;;;;5.08;100.00;98621.19;4154412;28;20045;-72
2022/10/26 04:32:21;;;;;;;9.73;6.00;;;;;;;5.12;100.00;98615.81;4155983;28;20042;-72
2022/10/26 04:34:21;;;;;;;7.15;4.53;;;;;;;5.19;100.00;98623.50;4154861;28;20084;-72
2022/10/26 04:36:22;;;;;;;9.02;5.47;;;;;;;5.24;100.00;98629.59;4154216;28;20856;-72
2022/10/26 04:38:22;;;;;;;10.80;6.00;;;;;;;5.28;100.00;98618.72;4158120;28;20464;-72
2022/10/26 04:40:22;;;;;;;7.88;5.18;;;;;;;5.34;100.00;98622.88;4155779;28;20056;-72
2022/10/26 04:42:23;;;;;;;7.70;4.72;;;;;;;5.38;100.00;98621.06;4158371;28;20098;-72
2022/10/26 04:44:23;;;;;;;7.80;5.20;;;;;;;5.41;100.00;98614.09;4154931;28;20069;-72
2022/10/26 04:46:23;;;;;;;7.18;5.43;;;;;;;5.44;100.00;98613.38;4155399;28;20049;-72
2022/10/26 04:48:24;;;;;;;9.10;4.82;;;;;;;5.46;100.00;98617.41;4155788;28;20042;-72
2022/10/26 04:50:24;;;;;;;7.45;5.30;;;;;;;5.47;100.00;98615.47;4158098;28;20052;-72
2022/10/26 04:52:24;;;;;;;9.52;5.85;;;;;;;5.45;100.00;98618.53;4159768;28;20032;-72
2022/10/26 04:54:25;;;;;;;8.75;5.20;;;;;;;5.49;100.00;98616.72;4154399;28;20045;-72
2022/10/26 04:56:25;;;;;;;7.53;5.22;;;;;;;5.51;100.00;98616.38;4143412;28;20040;-72
2022/10/26 04:58:26;;;;;;;8.50;5.65;;;;;;;5.53;100.00;98616.84;4162217;28;20473;-72
2022/10/26 05:00:28;;;;;;;8.38;5.20;;;;;;;5.55;100.00;98617.31;4157677;28;20398;-72
2022/10/26 05:02:29;;;;;;;8.02;4.40;;;;;;;5.58;100.00;98616.63;4158081;28;20281;-72
2022/10/26 05:04:29;;;;;;;10.25;5.13;;;;;;;5.61;100.00;98611.22;4157227;28;20397;-72
2022/10/26 05:06:29;;;;;;;6.45;4.38;;;;;;;5.65;100.00;98619.59;4160830;28;20341;-72
2022/10/26 05:08:30;;;;;;;7.72;5.38;;;;;;;5.62;100.00;98612.03;4158364;28;20073;-72
2022/10/26 05:10:30;;;;;;;8.75;5.18;;;;;;;5.64;100.00;98607.03;4163798;28;20091;-72
2022/10/26 05:12:33;;;;;;;11.13;6.57;;;;;;;5.68;100.00;98618.91;4157178;28;20029;-72
2022/10/26 05:14:33;;;;;;;;;;;;;;;5.70;100.00;98621.31;4158061;28;20079;-72
2022/10/26 05:16:33;;;;;;;8.53;5.70;;;;;;;5.71;100.00;98614.66;4163422;28;19909;-72
2022/10/26 05:18:33;;;;;;;9.25;5.45;;;;;;;5.69;100.00;98608.72;4161579;28;20267;-72
2022/10/26 05:20:35;;;;;;;8.30;5.10;;;;;;;5.72;100.00;98611.59;4163049;28;20136;-72
2022/10/26 05:22:35;;;;;;;7.43;4.65;;;;;;;5.77;100.00;98625.09;4156428;28;20042;-72
2022/10/26 05:24:35;;;;;;;10.50;4.85;;;;;;;5.78;100.00;98612.16;4156861;28;20037;-72
2022/10/26 05:26:36;;;;;;;6.88;4.47;;;;;;;5.80;100.00;98620.88;4158629;28;20106;-72
2022/10/26 05:28:36;;;;;;;8.23;4.53;;;;;;;5.80;100.00;98615.38;4156661;28;20493;-72
2022/10/26 05:30:36;;;;;;;8.13;4.53;;;;;;;5.77;100.00;98616.84;4157312;28;20064;-72
2022/10/26 05:32:37;;;;;;;9.63;4.88;;;;;;;5.78;100.00;98612.16;4155977;28;20030;-72
2022/10/26 05:34:37;;;;;;;7.15;4.30;;;;;;;5.78;100.00;98606.66;4159567;28;20371;-72
2022/10/26 05:36:37;;;;;;;7.90;4.50;;;;;;;5.79;100.00;98613.75;4159832;28;20037;-72
2022/10/26 05:38:37;;;;;;;7.50;4.25;;;;;;;5.80;100.00;98612.63;4158874;28;20437;-72
2022/10/26 05:40:45;;;;;;;6.32;4.15;;;;;;;5.79;100.00;98611.00;4157837;28;20248;-72
2022/10/26 05:42:45;;;;;;;7.85;4.57;;;;;;;5.79;100.00;98611.00;4158023;28;20044;-72
2022/10/26 05:44:45;;;;;;;13.85;5.75;;;;;;;5.81;100.00;98622.47;4158045;28;20148;-72
2022/10/26 05:46:46;;;;;;;11.20;5.15;;;;;;;5.82;100.00;98615.84;4157061;28;20041;-72
2022/10/26 05:48:46;;;;;;;12.52;5.20;;;;;;;5.84;100.00;98621.78;4159387;28;20044;-72
2022/10/26 05:50:46;;;;;;;9.57;5.40;;;;;;;5.84;100.00;98616.28;4159084;28;20402;-72
2022/10/26 05:52:48;;;;;;;8.85;5.45;;;;;;;5.87;100.00;98624.63;4157121;28;20049;-72
2022/10/26 05:54:48;;;;;;;12.00;5.22;;;;;;;5.88;100.00;98619.97;4161013;28;20136;-72
2022/10/26 05:56:49;;;;;;;10.70;5.60;;;;;;;5.92;100.00;98615.41;4156573;28;20113;-72
2022/10/26 05:58:49;;;;;;;14.13;5.78;;;;;;;5.94;100.00;98620.53;4158635;28;20048;-72
2022/10/26 06:01:06;;;;;;;10.18;6.30;;;;;;;5.96;100.00;98624.56;4156364;28;20048;-72
2022/10/26 06:03:14;;;;;;;14.25;6.00;;;;;;;5.99;100.00;98623.88;4161152;28;20192;-72
2022/10/26 06:05:21;;;;;;;9.55;5.65;;;;;;;6.02;100.00;98627.88;4158513;28;20077;-72
2022/10/26 06:07:21;;;;;;;10.02;5.93;;;;;;;6.03;100.00;98632.22;4159965;28;20890;-72
2022/10/26 06:09:22;;;;;;;13.43;6.03;;;;;;;6.03;100.00;98630.25;4159102;28;20076;-72
2022/10/26 06:11:23;;;;;;;11.85;6.05;;;;;;;6.08;100.00;98624.53;4156144;28;20049;-72
2022/10/26 06:13:23;;;;;;;8.95;6.10;;;;;;;6.11;100.00;98631.28;4155925;28;20425;-72
2022/10/26 06:15:24;;;;;;;8.80;5.85;;;;;;;6.08;100.00;98613.56;4157096;28;20037;-72
2022/10/26 06:17:41;;;;;;;11.70;6.55;;;;;;;6.14;100.00;98620.44;4161423;28;20474;-72
2022/10/26 06:20:14;;;;;;;10.05;6.30;;;;;;;6.14;100.00;98630.63;4160141;28;20045;-72
2022/10/26 06:22:41;;;;;;;10.35;5.90;;;;;;;6.17;100.00;98630.72;4160113;28;20130;-72
2022/10/26 06:24:52;;;;;;;10.13;5.85;;;;;;;6.19;100.00;98624.88;4129914;28;20459;-72
2022/10/26 06:27:23;;;;;;;9.73;5.78;;;;;;;6.21;100.00;98630.84;4159155;28;20132;-72
2022/10/26 06:30:00;;;;;;;12.45;6.13;;;;;;;6.26;100.00;98629.78;4159272;28;20110;-72
2022/10/26 06:32:01;;;;;;;14.35;6.55;;;;;;;6.28;100.00;98630.25;4159627;28;20045;-72
2022/10/26 06:34:02;;;;;;;14.05;6.43;;;;;;;6.31;100.00;98632.31;4158810;28;20128;-72
2022/10/26 06:36:06;;;;;;;12.50;7.68;;;;;;;6.35;100.00;98639.50;4158713;28;20693;-72
2022/10/26 06:38:10;;;;;;;9.75;6.68;;;;;;;6.37;100.00;98644.66;4160937;28;20144;-72
2022/10/26 06:40:14;;;;;;;11.73;6.60;;;;;;;6.41;100.00;98642.81;4156824;28;20416;-72
2022/10/26 06:42:14;;;;;;;14.93;6.90;;;;;;;6.44;100.00;98637.44;4157503;28;20100;-72
2022/10/26 06:44:25;;;;;;;9.75;5.53;;;;;;;6.48;100.00;98641.09;4161838;28;20544;-72
2022/10/26 06:46:36;;;;;;;8.63;5.82;;;;;;;6.54;100.00;98640.84;4156284;28;20699;-72
2022/10/26 06:48:52;;;;;;;9.13;5.18;;;;;;;6.57;100.00;98638.22;4157403;28;20042;-72
2022/10/26 06:50:53;;;;;;;8.25;5.40;;;;;;;6.63;100.00;98634.06;4159592;28;20079;-72
2022/10/26 06:53:20;;;;;;;9.52;5.45;;;;;;;6.74;100.00;98631.63;4156177;28;20032;-72
2022/10/26 06:55:22;;;;;;;8.80;5.18;;;;;;;6.81;100.00;98623.59;4157895;28;20049;-72
2022/10/26 06:57:27;;;;;;;7.18;4.82;;;;;;;6.87;100.00;98638.69;4154449;28;20041;-72
2022/10/26 06:59:27;;;;;;;11.65;4.60;;;;;;;6.93;100.00;98645.53;4155851;28;20091;-72
2022/10/26 07:01:27;;;;;;;13.95;4.60;;;;;;;7.01;100.00;98641.03;4158682;28;20057;-72
2022/10/26 07:03:27;;;;;;;9.10;5.13;;;;;;;7.12;100.00;98646.84;4158123;28;20044;-72
2022/10/26 07:05:27;;;;;;;7.43;4.68;;;;;;;7.18;100.00;98640.72;4160811;28;20091;-72
2022/10/26 07:07:29;;;;;;;8.20;4.00;;;;;;;7.25;100.00;98645.63;4157641;28;20065;-72
2022/10/26 07:09:30;;;;;;;7.60;3.88;;;;;;;7.36;100.00;98640.41;4158271;28;20366;-72
2022/10/26 07:11:30;;;;;;;5.90;3.97;;;;;;;7.44;100.00;98647.69;4158304;28;20047;-72
2022/10/26 07:13:30;;;;;;;7.93;3.90;;;;;;;7.48;100.00;98649.41;4156340;28;20378;-72
2022/10/26 07:15:31;;;;;;;9.65;3.78;;;;;;;7.51;100.00;98650.63;4157351;28;20065;-72
2022/10/26 07:17:42;;;;;;;7.00;3.50;;;;;;;7.55;100.00;98654.31;4158451;28;20553;-72
2022/10/26 07:19:43;;;;;;;9.82;3.58;;;;;;;7.55;100.00;98649.59;4154182;28;20049;-72
2022/10/26 07:21:43;;;;;;;7.30;3.50;;;;;;;7.55;100.00;98657.84;4155944;28;20045;-72
2022/10/26 07:23:44;;;;;;;6.03;3.63;;;;;;;7.57;100.00;98665.75;4157181;28;20132;-72
2022/10/26 07:25:44;;;;;;;6.90;3.70;;;;;;;7.61;100.00;98666.63;4157403;28;20041;-72
2022/10/26 07:27:44;;;;;;;11.57;3.97;;;;;;;7.65;100.00;98664.00;4155470;28;20429;-72
2022/10/26 07:29:45;;;;;;;6.78;3.92;;;;;;;7.70;100.00;98670.03;4154388;28;20103;-72
2022/10/26 07:31:45;;;;;;;10.88;5.82;;;;;;;7.77;100.00;98661.13;4155894;28;20619;-72
2022/10/26 07:33:45;;;;;;;10.20;5.30;;;;;;;7.81;100.00;98668.34;4157005;28;20092;-72
2022/10/26 07:35:45;;;;;;;8.00;4.90;;;;;;;7.86;100.00;98673.59;4157217;28;20461;-72
2022/10/26 07:37:46;;;;;;;8.80;5.60;;;;;;;7.88;100.00;98664.97;4156669;28;20045;-72
2022/10/26 07:39:46;;;;;;;8.75;5.05;;;;;;;7.96;100.00;98675.03;4155574;28;20068;-72
2022/10/26 07:41:46;;;;;;;9.38;5.43;;;;;;;8.03;100.00;98679.91;4157478;28;20095;-72
2022/10/26 07:43:49;;;;;;;13.45;6.32;;;;;;;8.15;100.00;98690.84;4155133;28;20397;-72
2022/10/26 07:45:50;;;;;;;9.18;5.50;;;;;;;8.24;100.00;98687.88;4157013;28;20541;-72
2022/10/26 07:47:50;;;;;;;7.47;5.15;;;;;;;8.31;100.00;98688.88;4158037;28;20087;-72
2022/10/26 07:49:51;;;;;;;11.30;5.47;;;;;;;8.38;100.00;98691.03;4157774;28;20659;-72
2022/10/26 07:51:51;;;;;;;10.77;5.80;;;;;;;8.42;100.00;98678.09;4156189;28;20057;-72
2022/10/26 07:53:51;;;;;;;10.50;6.15;;;;;;;8.49;100.00;98683.00;4154692;28;20045;-72
2022/10/26 07:55:56;;;;;;;11.43;5.30;;;;;;;8.54;100.00;98682.72;4159500;28;20424;-72
2022/10/26 07:57:56;;;;;;;8.95;5.85;;;;;;;8.63;100.00;98683.31;4153838;28;20054;-72
2022/10/26 07:59:56;;;;;;;12.43;6.00;;;;;;;8.67;100.00;98675.91;4157128;28;20370;-72
2022/10/26 08:01:57;;;;;;;11.88;5.35;;;;;;;8.76;100.00;98683.97;4155710;28;20090;-72
2022/10/26 08:03:57;;;;;;;9.73;5.55;;;;;;;8.82;100.00;98694.38;4155224;28;20045;-72
2022/10/26 08:05:57;;;;;;;14.82;6.30;;;;;;;8.90;100.00;98690.59;4152919;28;20449;-72
2022/10/26 08:07:58;;;;;;;12.85;5.68;;;;;;;9.00;100.00;98697.50;4155048;28;20575;-72
2022/10/26 08:09:58;;;;;;;25.20;6.50;;;;;;;9.05;100.00;98690.91;4156301;28;20052;-72
2022/10/26 08:11:58;;;;;;;15.65;5.90;;;;;;;9.09;100.00;98686.25;4154364;28;20373;-72
2022/10/26 08:14:01;;;;;;;11.77;6.07;;;;;;;9.17;100.00;98685.25;4153509;28;20041;-72
2022/10/26 08:16:04;;;;;;;27.42;6.55;;;;;;;9.20;100.00;98688.09;4155049;28;20049;-72
2022/10/26 08:18:04;;;;;;;14.75;6.18;;;;;;;9.19;100.00;98697.53;4156545;28;20030;-72
2022/10/26 08:20:05;;;;;;;13.13;7.03;;;;;;;9.22;100.00;98687.72;4152792;28;20029;-73
2022/10/26 08:22:06;;;;;;;19.73;8.45;;;;;;;9.22;100.00;98687.72;4153167;28;20041;-73
2022/10/26 08:24:06;;;;;;;15.43;5.88;;;;;;;9.27;100.00;98691.00;4152868;28;20040;-72
2022/10/26 08:26:08;;;;;;;10.85;6.03;;;;;;;9.31;100.00;98696.56;4153344;28;20116;-72
2022/10/26 08:28:08;;;;;;;8.85;5.40;;;;;;;9.31;100.00;98674.50;4155584;28;20029;-72
2022/10/26 08:30:09;;;;;;;14.00;5.72;;;;;;;9.32;100.00;98680.81;4154733;28;20314;-73
2022/10/26 08:32:09;;;;;;;10.13;6.35;;;;;;;9.36;100.00;98681.69;4154813;28;20021;-72
2022/10/26 08:34:09;;;;;;;6.97;4.70;;;;;;;9.36;100.00;98690.78;4155160;28;20037;-72
2022/10/26 08:36:11;;;;;;;10.73;5.50;;;;;;;9.35;100.00;98682.81;4158116;28;20106;-73
2022/10/26 08:38:11;;;;;;;9.25;4.78;;;;;;;9.40;100.00;98685.31;4158418;28;20032;-73
2022/10/26 08:40:15;;;;;;;11.75;5.57;;;;;;;9.39;100.00;98686.47;4156964;28;20279;-72
2022/10/26 08:42:27;;;;;;;15.95;5.38;;;;;;;9.41;100.00;98682.19;4158165;28;20038;-72
2022/10/26 08:44:41;;;;;;;10.10;5.20;;;;;;;9.49;100.00;98694.94;4160343;28;20817;-72
2022/10/26 08:46:45;;;;;;;13.55;5.47;;;;;;;9.52;100.00;98690.69;4159051;28;20168;-73
2022/10/26 08:49:01;;;;;;;10.38;5.25;;;;;;;9.57;100.00;98695.91;4158799;28;20061;-73
2022/10/26 08:51:07;;;;;;;9.63;4.80;;;;;;;9.62;100.00;98697.56;4160499;28;20033;-73
2022/10/26 08:53:19;;;;;;;8.02;5.43;;;;;;;9.66;100.00;98698.41;4162611;28;20041;-73
2022/10/26 08:55:25;;;;;;;8.10;4.82;;;;;;;9.71;100.00;98696.16;4159315;28;20056;-73
2022/10/26 08:57:46;;;;;;;9.07;4.78;;;;;;;9.75;100.00;98697.00;4157107;28;20046;-73
2022/10/26 08:59:55;;;;;;;7.88;4.53;;;;;;;9.78;100.00;98688.00;4162650;28;20058;-72
2022/10/26 09:01:55;;;;;;;7.60;5.88;;;;;;;9.81;100.00;98694.75;4160292;28;20461;-72
2022/10/26 09:03:57;;;;;;;13.10;6.28;;;;;;;9.86;100.00;98700.00;4158479;28;20484;-72
2022/10/26 09:06:00;;;;;;;9.60;6.70;;;;;;;9.93;100.00;98691.81;4156626;28;20080;-72
2022/10/26 09:08:16;;;;;;;11.02;7.05;;;;;;;9.97;100.00;98700.97;4158022;28;20055;-72
2022/10/26 09:10:34;;;;;;;8.45;7.03;;;;;;;10.06;100.00;98701.50;4158049;28;20037;-72
2022/10/26 09:12:57;;;;;;;12.48;7.55;;;;;;;10.11;100.00;98705.94;4163614;28;20096;-73
2022/10/26 09:15:29;;;;;;;8.73;7.55;;;;;;;10.16;100.00;98702.84;4165630;28;20139;-73
2022/10/26 09:17:30;;;;;;;13.05;6.53;;;;;;;10.21;100.00;98702.56;4157097;28;20041;-72
2022/10/26 09:20:04;;;;;;;10.98;6.45;;;;;;;10.28;100.00;98711.00;4156614;28;20041;-73
2022/10/26 09:22:45;;;;;;;13.68;6.00;;;;;;;10.36;100.00;98714.69;4159972;28;20049;-72
2022/10/26 09:24:54;;;;;;;9.32;5.78;;;;;;;10.38;100.00;98715.09;4158065;28;20049;-72
2022/10/26 09:27:12;;;;;;;9.70;5.30;;;;;;;10.40;100.00;98721.84;4160849;28;20041;-72
2022/10/26 09:29:13;;;;;;;14.48;5.80;;;;;;;10.43;100.00;98728.63;4159233;28;20324;-73
2022/10/26 09:31:16;;;;;;;10.80;4.85;;;;;;;10.53;100.00;98724.44;4157753;28;20096;-73
2022/10/26 09:33:21;;;;;;;9.60;5.35;;;;;;;10.61;100.00;98728.91;4157052;28;20038;-72
2022/10/26 09:35:28;;;;;;;8.40;5.25;;;;;;;10.66;100.00;98729.38;4157130;28;20049;-73
2022/10/26 09:37:35;;;;;;;7.82;4.80;;;;;;;10.73;100.00;98744.50;4159134;28;20106;-73
2022/10/26 09:39:42;;;;;;;10.43;5.70;;;;;;;10.78;100.00;98738.66;4164112;28;20064;-73
2022/10/26 09:41:48;;;;;;;6.75;4.60;;;;;;;10.80;100.00;98728.00;4159558;28;20140;-73
2022/10/26 09:44:04;;;;;;;4.97;4.30;;;;;;;10.83;100.00;98739.09;4155881;28;20049;-73